Time;durP1;ratioP1;P1;durP2;ratioP2;P2;SDS_P1;SDS_P2;PMS_P1;PMS_P2;Temp;Humidity;BMP_temperature;BMP_pressure;BME280_temperature;BME280_humidity;BME280_pressure;Samples;Min_cycle;Max_cycle;Signal;HPM_P1;HPM_P2
2023/10/02 00:01:47;;;;;;;4.88;2.28;;;16.20;81.70;16.10;101281.00;;;;4987273;27;88090;-65
2023/10/02 00:04:17;;;;;;;3.85;2.47;;;16.10;82.00;16.10;101277.00;;;;4987472;27;88660;-65
2023/10/02 00:06:43;;;;;;;8.02;3.53;;;16.00;82.30;16.00;101280.00;;;;4990026;27;89153;-68
2023/10/02 00:09:09;;;;;;;4.20;2.40;;;16.00;82.40;16.00;101275.00;;;;4993619;27;87978;-66
2023/10/02 00:11:45;;;;;;;4.55;2.45;;;15.90;82.40;15.90;101270.00;;;;4989279;28;89116;-66
2023/10/02 00:14:19;;;;;;;4.25;2.08;;;15.90;82.60;15.90;101272.00;;;;4989544;27;88917;-66
2023/10/02 00:16:59;;;;;;;2.63;2.15;;;15.90;82.80;15.80;101277.00;;;;4972275;28;90420;-65
2023/10/02 00:19:47;;;;;;;2.22;1.80;;;15.80;83.00;15.80;101275.00;;;;4984429;27;88954;-65
2023/10/02 00:22:38;;;;;;;2.67;2.40;;;15.70;83.10;15.70;101280.00;;;;4986173;27;87768;-65
2023/10/02 00:25:19;;;;;;;6.57;2.83;;;15.70;83.30;15.70;101270.00;;;;4986876;27;87833;-65
2023/10/02 00:27:48;;;;;;;3.60;1.88;;;15.70;83.40;15.60;101261.00;;;;4990022;27;88015;-65
2023/10/02 00:30:23;;;;;;;8.18;2.47;;;15.60;83.40;15.60;101263.00;;;;4992372;27;88256;-64
2023/10/02 00:32:51;;;;;;;6.65;2.03;;;15.60;83.60;15.50;101266.00;;;;4991558;27;87785;-65
2023/10/02 00:35:17;;;;;;;3.60;2.42;;;15.50;83.60;15.40;101260.00;;;;4986848;28;88282;-64
2023/10/02 00:37:43;;;;;;;2.58;1.85;;;15.40;83.70;15.40;101260.00;;;;4989732;28;117717;-66
2023/10/02 00:40:26;;;;;;;4.93;2.72;;;15.40;83.80;15.30;101262.00;;;;4982370;27;107420;-65
2023/10/02 00:45:49;;;;;;;3.83;1.95;;;15.30;84.40;15.20;101260.00;;;;4987853;28;90412;-66
2023/10/02 00:48:28;;;;;;;2.35;1.85;;;15.20;84.40;15.10;101248.00;;;;4987333;28;88244;-66
2023/10/02 00:50:59;;;;;;;1.70;1.60;;;15.10;84.70;15.00;101245.00;;;;4967851;28;88777;-65
2023/10/02 00:53:44;;;;;;;3.22;2.30;;;15.10;85.00;15.00;101254.00;;;;4987563;28;88133;-65
2023/10/02 00:56:23;;;;;;;2.42;1.50;;;15.00;85.20;14.90;101244.00;;;;4993159;27;87745;-65
2023/10/02 00:59:00;;;;;;;5.50;1.85;;;14.90;85.40;14.80;101239.00;;;;4992492;28;88806;-64
2023/10/02 01:01:28;;;;;;;1.95;1.77;;;14.80;85.60;14.80;101243.00;;;;4990968;28;87942;-64
2023/10/02 01:04:09;;;;;;;1.77;1.60;;;14.80;85.80;14.70;101249.00;;;;4986195;28;87231;-66
2023/10/02 01:06:54;;;;;;;3.72;2.13;;;14.70;85.90;14.60;101242.00;;;;4988974;27;88058;-65
2023/10/02 01:09:22;;;;;;;6.73;2.47;;;14.60;86.10;14.60;101239.00;;;;4988436;27;89029;-64
2023/10/02 01:11:57;;;;;;;4.75;2.33;;;14.60;86.30;14.50;101251.00;;;;4988992;28;88815;-65
2023/10/02 01:17:14;;;;;;;4.35;2.08;;;14.50;87.00;14.30;101246.00;;;;4984894;27;87884;-66
2023/10/02 01:19:57;;;;;;;2.87;1.47;;;14.40;87.20;14.20;101255.00;;;;4990464;27;88403;-66
2023/10/02 01:22:30;;;;;;;3.13;1.83;;;14.30;87.40;14.20;101256.00;;;;4988124;27;88446;-65
2023/10/02 01:25:12;;;;;;;4.87;2.60;;;14.20;87.80;14.10;101255.00;;;;4973005;27;88787;-66
2023/10/02 01:27:46;;;;;;;3.70;2.25;;;14.10;88.00;14.00;101253.00;;;;4984469;28;87877;-65
2023/10/02 01:30:16;;;;;;;2.80;1.97;;;14.00;88.10;13.90;101252.00;;;;4987355;28;88466;-66
2023/10/02 01:33:12;;;;;;;2.30;1.67;;;14.00;88.50;13.80;101265.00;;;;4990662;27;89916;-65
2023/10/02 01:35:57;;;;;;;6.27;2.47;;;13.90;88.90;13.70;101250.00;;;;4990833;27;87582;-65
2023/10/02 01:38:37;;;;;;;2.97;2.50;;;13.80;89.20;13.70;101253.00;;;;4986791;27;89101;-64
2023/10/02 01:41:06;;;;;;;5.07;2.33;;;13.70;89.50;13.60;101248.00;;;;4985120;28;88789;-64
2023/10/02 01:43:43;;;;;;;2.43;1.63;;;13.70;89.80;13.60;101252.00;;;;4985664;27;89137;-65
2023/10/02 01:46:10;;;;;;;2.00;1.60;;;13.60;90.00;13.50;101254.00;;;;4986554;28;87832;-64
2023/10/02 01:48:44;;;;;;;2.70;2.13;;;13.50;90.10;13.50;101255.00;;;;4988832;27;87834;-65
2023/10/02 01:51:29;;;;;;;2.00;1.67;;;13.50;90.30;13.40;101252.00;;;;4981755;27;88719;-65
2023/10/02 01:54:02;;;;;;;2.20;1.90;;;13.40;90.40;13.30;101252.00;;;;4981210;28;88019;-66
2023/10/02 01:56:31;;;;;;;3.40;2.20;;;13.40;90.60;13.30;101244.00;;;;4986423;28;87043;-65
2023/10/02 01:59:09;;;;;;;2.70;2.37;;;13.30;90.70;13.20;101243.00;;;;4985010;27;87968;-65
2023/10/02 02:01:52;;;;;;;5.60;2.10;;;13.30;90.90;13.20;101243.00;;;;4986907;28;89033;-64
2023/10/02 02:04:32;;;;;;;2.80;1.97;;;13.20;91.10;13.10;101243.00;;;;4987522;28;88817;-65
2023/10/02 02:07:00;;;;;;;4.87;1.90;;;13.10;91.30;13.00;101241.00;;;;4986436;28;89783;-64
2023/10/02 02:09:37;;;;;;;3.87;2.23;;;13.10;91.40;12.90;101240.00;;;;4987022;27;87800;-65
2023/10/02 02:12:07;;;;;;;3.07;2.13;;;13.00;91.60;12.90;101243.00;;;;4974066;28;88785;-64
2023/10/02 02:14:50;;;;;;;2.63;1.93;;;12.90;91.70;12.80;101242.00;;;;4988627;28;88816;-65
2023/10/02 02:17:18;;;;;;;3.27;1.87;;;12.90;91.80;12.80;101238.00;;;;4989416;28;87839;-64
2023/10/02 02:19:48;;;;;;;4.67;2.03;;;12.80;91.90;12.80;101234.00;;;;4988096;28;87835;-65
2023/10/02 02:22:26;;;;;;;3.70;1.93;;;12.80;92.10;12.70;101234.00;;;;4992538;27;87962;-65
2023/10/02 02:24:59;;;;;;;4.57;2.63;;;12.80;92.20;12.70;101233.00;;;;4988179;27;88046;-65
2023/10/02 02:27:25;;;;;;;2.97;1.97;;;12.70;92.40;12.70;101231.00;;;;4986488;28;87992;-65
2023/10/02 02:29:54;;;;;;;3.33;2.53;;;12.70;92.50;12.60;101239.00;;;;4987449;28;89697;-66
2023/10/02 02:32:36;;;;;;;3.57;2.50;;;12.60;92.60;12.60;101226.00;;;;4987166;28;88906;-65
2023/10/02 02:35:03;;;;;;;4.03;2.23;;;12.60;92.80;12.50;101234.00;;;;4987672;28;88688;-64
2023/10/02 02:37:32;;;;;;;4.83;1.73;;;12.50;92.90;12.50;101232.00;;;;4990732;28;99373;-65
2023/10/02 02:40:23;;;;;;;4.03;2.20;;;12.50;93.10;12.40;101235.00;;;;4986361;28;87908;-65
2023/10/02 02:42:52;;;;;;;4.67;2.80;;;12.50;93.30;12.40;101236.00;;;;4988456;28;88300;-65
2023/10/02 02:45:25;;;;;;;1.87;1.70;;;11.40;93.10;12.40;101235.00;;;;4988524;28;88932;-66
2023/10/02 02:48:04;;;;;;;2.97;2.27;;;12.40;93.50;12.40;101243.00;;;;4986372;28;87006;-65
2023/10/02 02:50:40;;;;;;;6.67;2.30;;;12.40;93.60;12.40;101236.00;;;;4985928;28;89516;-65
2023/10/02 02:53:16;;;;;;;2.53;2.33;;;12.40;93.80;12.40;101232.00;;;;4988572;28;89428;-64
2023/10/02 02:55:45;;;;;;;1.97;1.60;;;12.40;93.80;12.30;101235.00;;;;4983253;27;89020;-64
2023/10/02 02:58:12;;;;;;;4.30;1.83;;;12.40;93.90;12.30;101233.00;;;;4974073;28;87919;-65
2023/10/02 03:00:39;;;;;;;3.63;2.23;;;12.30;94.10;12.30;101237.00;;;;4985692;28;87793;-65
2023/10/02 03:03:32;;;;;;;3.37;2.43;;;12.30;94.20;12.20;101229.00;;;;4985193;28;88833;-65
2023/10/02 03:05:58;;;;;;;5.17;2.60;;;12.30;94.30;12.20;101210.00;;;;4988228;27;87939;-64
2023/10/02 03:08:37;;;;;;;17.20;2.17;;;12.20;94.50;12.20;101226.00;;;;4975546;28;87853;-65
2023/10/02 03:11:07;;;;;;;3.87;1.97;;;12.20;94.70;12.10;101224.00;;;;4986061;27;89203;-64
2023/10/02 03:13:36;;;;;;;3.60;2.37;;;12.20;94.80;12.10;101224.00;;;;4985756;28;89040;-64
2023/10/02 03:16:12;;;;;;;5.50;2.10;;;12.10;94.90;12.10;101224.00;;;;4988344;27;88118;-65
2023/10/02 03:18:43;;;;;;;2.60;1.77;;;12.10;95.10;12.10;101223.00;;;;4986665;27;89696;-65
2023/10/02 03:21:30;;;;;;;5.23;2.53;;;12.10;95.20;12.10;101220.00;;;;4985065;27;88862;-65
2023/10/02 03:23:59;;;;;;;3.33;2.50;;;12.10;95.30;12.00;101218.00;;;;4969927;28;87697;-65
2023/10/02 03:29:21;;;;;;;6.03;2.00;;;12.00;95.50;12.00;101219.00;;;;4972507;27;88087;-65
2023/10/02 03:31:51;;;;;;;4.03;1.60;;;12.00;95.60;12.00;101220.00;;;;4986450;27;88570;-66
2023/10/02 03:34:30;;;;;;;4.03;2.47;;;12.00;95.80;12.00;101214.00;;;;4983483;28;89206;-65
2023/10/02 03:42:25;;;;;;;3.80;3.00;;;12.00;96.00;11.90;101224.00;;;;4991362;28;87983;-65
2023/10/02 03:44:56;;;;;;;5.23;2.47;;;12.00;96.10;11.90;101229.00;;;;4985041;27;89050;-66
2023/10/02 03:47:23;;;;;;;6.07;2.57;;;11.90;96.50;11.90;101218.00;;;;4989399;27;88974;-64
2023/10/02 03:49:50;;;;;;;2.77;1.90;;;11.90;96.30;11.90;101225.00;;;;4982825;27;87944;-65
2023/10/02 03:52:17;;;;;;;4.73;2.33;;;11.90;96.60;11.90;101224.00;;;;4981436;28;88247;-65
2023/10/02 03:54:49;;;;;;;5.13;2.50;;;11.90;96.60;11.80;101223.00;;;;4988195;28;88310;-65
2023/10/02 04:00:12;;;;;;;3.07;2.20;;;11.80;96.80;11.80;101227.00;;;;4988310;28;87603;-65
2023/10/02 04:02:39;;;;;;;4.13;2.77;;;11.80;96.90;11.80;101229.00;;;;4987066;28;89022;-65
2023/10/02 04:05:06;;;;;;;3.13;2.60;;;11.80;97.10;11.80;101219.00;;;;4986430;28;87392;-66
2023/10/02 04:07:32;;;;;;;3.77;2.10;;;11.80;97.20;11.70;101222.00;;;;4985025;27;100910;-66
2023/10/02 04:09:58;;;;;;;6.50;2.90;;;11.80;97.30;11.70;101213.00;;;;4987232;28;89390;-66
2023/10/02 04:12:26;;;;;;;1.57;1.47;;;11.70;97.50;11.60;101212.00;;;;4992187;27;88771;-65
2023/10/02 04:14:54;;;;;;;3.57;1.93;;;11.70;97.70;11.60;101203.00;;;;4991115;27;88750;-65
2023/10/02 04:19:49;;;;;;;4.10;2.67;;;11.60;98.00;11.50;101209.00;;;;4988491;28;105039;-65
2023/10/02 04:22:19;;;;;;;3.10;2.23;;;11.60;98.10;11.50;101205.00;;;;4987208;27;89360;-65
2023/10/02 04:25:06;;;;;;;4.17;2.63;;;11.50;98.20;11.50;101202.00;;;;4990593;28;88091;-65
2023/10/02 04:32:49;;;;;;;6.90;3.00;;;11.50;98.40;11.50;101202.00;;;;4986771;28;88053;-64
2023/10/02 04:38:07;;;;;;;4.93;3.40;;;11.50;98.50;11.50;101207.00;;;;4987846;28;88950;-65
2023/10/02 04:40:51;;;;;;;4.10;2.40;;;11.50;98.60;11.40;101211.00;;;;4988998;28;87935;-65
2023/10/02 04:43:25;;;;;;;4.00;2.70;;;11.50;98.70;11.40;101210.00;;;;4988499;28;87523;-64
2023/10/02 04:46:08;;;;;;;2.20;2.00;;;11.50;98.70;11.40;101203.00;;;;4987717;28;87900;-64
2023/10/02 04:48:45;;;;;;;3.23;1.80;;;11.50;98.80;11.40;101200.00;;;;4984742;28;88218;-65
2023/10/02 04:51:12;;;;;;;3.77;2.60;;;11.40;98.90;11.30;101196.00;;;;4986048;27;87953;-65
2023/10/02 04:53:45;;;;;;;5.63;2.20;;;11.40;99.00;11.30;101201.00;;;;4988100;28;87883;-66
2023/10/02 04:58:51;;;;;;;2.40;2.03;;;11.30;99.10;11.30;101200.00;;;;4985812;27;88088;-65
2023/10/02 05:01:28;;;;;;;3.80;2.33;;;11.30;99.20;11.30;101200.00;;;;4989941;28;88414;-64
2023/10/02 05:04:04;;;;;;;2.60;1.87;;;11.30;99.30;11.30;101205.00;;;;4987594;28;88854;-64
2023/10/02 05:06:43;;;;;;;3.33;2.17;;;11.30;99.40;11.30;101200.00;;;;4991350;28;91907;-64
2023/10/02 05:11:52;;;;;;;2.67;2.47;;;11.30;99.50;11.30;101192.00;;;;4984811;27;89585;-65
2023/10/02 05:14:47;;;;;;;3.73;2.10;;;11.30;99.60;11.20;101206.00;;;;4986028;28;89484;-64
2023/10/02 05:17:44;;;;;;;5.00;2.37;;;11.30;99.70;11.20;101200.00;;;;4982641;28;89106;-65
2023/10/02 05:20:07;;;;;;;3.47;2.17;;;11.30;99.70;11.20;101193.00;;;;4985581;28;88154;-65
2023/10/02 05:22:36;;;;;;;5.63;2.53;;;11.20;99.70;11.20;101199.00;;;;4992774;28;87625;-65
2023/10/02 05:25:07;;;;;;;5.20;2.30;;;11.30;99.80;11.20;101202.00;;;;4981496;28;88084;-65
2023/10/02 05:27:48;;;;;;;4.17;2.10;;;11.30;99.90;11.20;101200.00;;;;4981619;28;88103;-65
2023/10/02 05:30:14;;;;;;;5.53;3.20;;;11.30;99.90;11.20;101204.00;;;;4983271;28;90055;-66
2023/10/02 05:32:40;;;;;;;4.13;2.53;;;11.30;99.90;11.30;101198.00;;;;4984888;28;88993;-65
2023/10/02 05:37:42;;;;;;;5.47;2.83;;;11.40;99.90;11.40;101205.00;;;;4979285;27;92780;-65
2023/10/02 05:45:39;;;;;;;2.00;1.63;;;11.60;99.90;11.80;101203.00;;;;4985863;28;87641;-64
2023/10/02 05:48:37;;;;;;;2.93;2.10;;;11.70;99.90;11.90;101208.00;;;;4987096;28;88109;-65
2023/10/02 05:51:09;;;;;;;3.63;2.07;;;11.90;99.90;12.10;101219.00;;;;4984786;28;87737;-64
2023/10/02 05:53:37;;;;;;;4.93;2.70;;;12.00;99.90;12.30;101208.00;;;;4983858;27;88206;-65
2023/10/02 05:58:43;;;;;;;4.23;2.00;;;12.50;99.90;12.80;101215.00;;;;4988021;28;88337;-64
2023/10/02 06:01:47;;;;;;;3.13;2.60;;;12.70;99.90;13.10;101212.00;;;;4984061;27;88276;-65
2023/10/02 06:04:06;;;;;;;3.77;2.43;;;13.00;99.90;13.40;101219.00;;;;4979256;27;89591;-65
2023/10/02 06:06:35;;;;;;;5.13;2.97;;;13.20;99.90;13.60;101214.00;;;;4982491;27;88087;-64
2023/10/02 06:09:03;;;;;;;6.67;2.60;;;13.40;99.70;13.80;101216.00;;;;4985755;27;87816;-66
2023/10/02 06:11:33;;;;;;;2.23;1.50;;;13.70;99.50;14.10;101210.00;;;;4984750;27;89926;-64
2023/10/02 06:14:10;;;;;;;3.20;2.13;;;14.00;99.30;14.40;101220.00;;;;4980816;28;88415;-66
2023/10/02 06:16:40;;;;;;;5.10;2.03;;;14.20;98.90;14.60;101213.00;;;;4982634;28;87904;-63
2023/10/02 06:19:13;;;;;;;6.32;2.95;;;14.50;98.60;14.90;101232.00;;;;4983223;27;88412;-65
2023/10/02 06:21:46;;;;;;;3.95;2.58;;;14.70;98.30;15.10;101214.00;;;;4982014;27;88903;-65
2023/10/02 06:24:19;;;;;;;3.80;2.55;;;15.00;98.00;15.40;101216.00;;;;4987447;27;87945;-64
2023/10/02 06:26:58;;;;;;;4.80;2.90;;;15.20;97.50;15.60;101217.00;;;;4966738;27;88089;-65
2023/10/02 06:29:35;;;;;;;4.13;2.30;;;15.50;97.30;15.90;101210.00;;;;4982600;27;87784;-65
2023/10/02 06:32:05;;;;;;;3.22;2.45;;;15.70;96.90;16.10;101209.00;;;;4981056;28;88244;-65
2023/10/02 06:34:38;;;;;;;6.25;3.25;;;16.00;96.50;16.40;101219.00;;;;4970560;28;88806;-65
2023/10/02 06:37:25;;;;;;;4.45;2.03;;;16.20;96.10;16.60;101219.00;;;;4984711;28;88099;-66
2023/10/02 06:40:04;;;;;;;5.95;2.28;;;16.50;95.50;16.90;101222.00;;;;4983275;28;87317;-65
2023/10/02 06:42:31;;;;;;;4.05;2.47;;;16.70;95.30;17.10;101230.00;;;;4979555;28;87876;-65
2023/10/02 06:45:01;;;;;;;3.60;2.13;;;17.00;94.60;17.40;101225.00;;;;4983911;28;88102;-65
2023/10/02 06:47:29;;;;;;;3.00;2.38;;;17.20;94.30;17.60;101221.00;;;;4983452;28;88894;-65
2023/10/02 06:52:41;;;;;;;4.75;2.67;;;17.60;93.50;18.10;101223.00;;;;4983566;28;87696;-64
2023/10/02 06:55:07;;;;;;;3.28;2.03;;;17.90;93.10;18.30;101222.00;;;;4979997;28;88197;-67
2023/10/02 06:57:36;;;;;;;4.85;2.65;;;18.10;92.40;18.50;101223.00;;;;4982590;28;88272;-65
2023/10/02 07:00:04;;;;;;;3.90;1.73;;;18.30;91.80;18.60;101218.00;;;;4982444;28;88735;-66
2023/10/02 07:02:32;;;;;;;4.88;1.83;;;18.50;91.20;18.80;101223.00;;;;4979009;28;88709;-66
2023/10/02 07:04:58;;;;;;;2.33;2.13;;;18.60;91.00;19.00;101234.00;;;;4978927;28;87105;-64
2023/10/02 07:07:28;;;;;;;3.95;2.25;;;18.80;90.60;19.20;101230.00;;;;4981839;28;87991;-65
2023/10/02 07:10:07;;;;;;;3.25;1.17;;;19.00;90.30;19.40;101223.00;;;;4974870;28;88449;-66
2023/10/02 07:12:39;;;;;;;3.35;2.47;;;19.20;89.20;19.60;101233.00;;;;4982422;27;89129;-66
2023/10/02 07:15:22;;;;;;;3.70;1.88;;;19.40;88.90;19.80;101231.00;;;;4982436;28;89744;-64
2023/10/02 07:17:48;;;;;;;3.22;2.13;;;19.60;87.70;20.00;101234.00;;;;4969217;28;88112;-65
2023/10/02 07:20:17;;;;;;;4.35;3.03;;;19.80;86.70;20.30;101231.00;;;;4967615;28;88379;-66
2023/10/02 07:22:44;;;;;;;3.75;2.45;;;20.00;86.20;20.50;101238.00;;;;4989573;27;89056;-65
2023/10/02 07:25:09;;;;;;;4.55;2.40;;;20.30;84.90;20.70;101237.00;;;;4988372;28;88053;-64
2023/10/02 07:27:37;;;;;;;2.15;1.80;;;20.50;83.20;20.80;101240.00;;;;4984926;28;106398;-66
2023/10/02 07:30:05;;;;;;;2.92;2.38;;;20.70;82.50;21.10;101250.00;;;;4990225;28;87958;-65
2023/10/02 07:32:36;;;;;;;7.00;2.83;;;20.90;81.60;21.20;101244.00;;;;4984334;28;105482;-66
2023/10/02 07:35:21;;;;;;;5.65;2.05;;;21.10;79.80;21.40;101250.00;;;;4987300;28;87842;-66
2023/10/02 07:37:57;;;;;;;3.78;2.10;;;21.20;79.30;21.60;101253.00;;;;4987466;28;88859;-66
2023/10/02 07:40:26;;;;;;;4.13;2.00;;;21.40;78.10;21.70;101255.00;;;;4975576;28;90446;-65
2023/10/02 07:42:52;;;;;;;2.58;1.67;;;21.50;77.30;21.80;101253.00;;;;4987712;28;88075;-67
2023/10/02 07:45:30;;;;;;;5.40;1.95;;;21.60;75.70;21.90;101248.00;;;;4984902;28;89442;-65
2023/10/02 07:48:08;;;;;;;2.92;1.58;;;21.70;75.50;22.00;101254.00;;;;4980745;28;87785;-65
2023/10/02 07:50:38;;;;;;;4.82;2.50;;;21.90;74.80;22.20;101248.00;;;;4986839;28;88117;-67
2023/10/02 07:53:05;;;;;;;5.25;2.13;;;22.00;74.30;22.30;101256.00;;;;4985090;28;87798;-66
2023/10/02 07:55:40;;;;;;;2.20;1.65;;;22.20;73.40;22.50;101256.00;;;;4985562;28;102268;-66
2023/10/02 07:58:13;;;;;;;5.53;1.70;;;22.30;72.50;22.70;101253.00;;;;4986520;28;88232;-66
2023/10/02 08:00:43;;;;;;;2.95;2.05;;;22.40;72.60;22.90;101250.00;;;;4984078;28;88688;-65
2023/10/02 08:03:32;;;;;;;4.25;2.13;;;22.70;70.80;23.10;101245.00;;;;4982527;28;89027;-66
2023/10/02 08:06:20;;;;;;;2.83;2.08;;;22.90;71.00;23.30;101251.00;;;;4984600;28;88146;-66
2023/10/02 08:11:53;;;;;;;3.03;1.65;;;23.30;67.50;23.50;101256.00;;;;4984920;28;87620;-66
2023/10/02 08:14:41;;;;;;;3.35;1.95;;;23.30;66.50;23.50;101249.00;;;;4988401;28;88023;-67
2023/10/02 08:17:27;;;;;;;2.58;2.28;;;23.40;66.30;23.70;101242.00;;;;4987776;28;88392;-66
2023/10/02 08:19:55;;;;;;;3.60;1.60;;;23.50;66.30;23.80;101251.00;;;;4979347;28;87938;-66
2023/10/02 08:22:35;;;;;;;2.97;2.05;;;23.70;65.20;23.90;101247.00;;;;4984907;27;88526;-65
2023/10/02 08:25:13;;;;;;;3.05;2.10;;;23.70;64.50;24.00;101251.00;;;;4984139;28;89239;-66
2023/10/02 08:27:44;;;;;;;7.80;2.08;;;23.80;64.70;24.20;101241.00;;;;4986262;28;88366;-65
2023/10/02 08:33:18;;;;;;;3.45;2.55;;;24.20;64.00;24.80;101242.00;;;;4984287;28;88135;-66
2023/10/02 08:35:47;;;;;;;3.97;1.90;;;24.20;62.00;24.90;101244.00;;;;4989627;28;87865;-65
2023/10/02 08:38:23;;;;;;;3.28;2.10;;;24.70;61.70;25.10;101227.00;;;;4971817;28;89821;-67
2023/10/02 08:40:57;;;;;;;4.68;2.65;;;24.80;60.00;25.30;101230.00;;;;4977862;28;88156;-65
2023/10/02 08:43:32;;;;;;;4.45;2.45;;;25.00;60.30;25.40;101228.00;;;;4987865;28;88930;-66
2023/10/02 08:45:59;;;;;;;8.82;2.70;;;25.20;59.70;25.60;101234.00;;;;4973143;28;88748;-66
2023/10/02 08:48:25;;;;;;;12.90;4.40;;;25.30;59.50;25.80;101226.00;;;;4989785;28;87085;-66
2023/10/02 08:50:57;;;;;;;13.93;4.72;;;25.50;58.90;26.00;101225.00;;;;4983295;28;87787;-66
2023/10/02 08:53:25;;;;;;;4.07;2.38;;;25.70;59.10;26.40;101228.00;;;;4984692;28;88971;-66
2023/10/02 08:56:00;;;;;;;3.13;1.85;;;26.10;58.60;26.50;101223.00;;;;4972490;28;90441;-67
2023/10/02 08:58:27;;;;;;;3.90;1.92;;;26.30;57.00;26.50;101220.00;;;;4983334;28;90102;-66
2023/10/02 09:03:43;;;;;;;5.53;2.47;;;26.20;55.80;26.30;101214.00;;;;4985457;28;87942;-65
2023/10/02 09:06:28;;;;;;;3.75;2.10;;;26.10;56.00;26.30;101223.00;;;;4984288;28;88609;-67
2023/10/02 09:11:41;;;;;;;4.25;2.10;;;26.30;55.60;26.60;101212.00;;;;4982057;28;88122;-67
2023/10/02 09:16:47;;;;;;;5.60;2.25;;;26.40;55.30;26.90;101214.00;;;;4984145;28;87720;-66
2023/10/02 09:19:30;;;;;;;2.58;1.67;;;26.60;55.20;27.00;101213.00;;;;4984256;28;89494;-68
2023/10/02 09:22:12;;;;;;;8.32;2.30;;;26.80;54.30;27.00;101207.00;;;;4987042;27;88899;-67
2023/10/02 09:24:40;;;;;;;6.15;2.30;;;26.80;54.00;27.10;101199.00;;;;4966587;28;88142;-71
2023/10/02 09:27:26;;;;;;;3.25;2.72;;;26.80;53.60;27.20;101208.00;;;;4984186;28;88718;-68
2023/10/02 09:30:21;;;;;;;2.92;2.10;;;26.90;53.70;27.40;101201.00;;;;4983623;28;87860;-66
2023/10/02 09:32:50;;;;;;;3.53;1.60;;;27.10;53.40;27.70;101206.00;;;;4974251;28;88183;-68
2023/10/02 09:35:39;;;;;;;7.00;2.42;;;27.30;53.60;28.10;101187.00;;;;4963488;28;87768;-68
2023/10/02 09:38:06;;;;;;;6.88;1.67;;;27.60;52.80;28.20;101188.00;;;;4972443;28;88644;-69
2023/10/02 09:43:35;;;;;;;4.65;2.10;;;28.00;52.00;28.60;101186.00;;;;4969972;27;87642;-67
2023/10/02 09:46:06;;;;;;;4.00;2.63;;;28.20;51.60;28.80;101174.00;;;;4987579;28;87846;-68
2023/10/02 09:48:52;;;;;;;3.97;2.00;;;28.40;51.80;29.20;101181.00;;;;4981729;28;89294;-67
2023/10/02 09:51:30;;;;;;;4.45;2.88;;;28.70;50.90;29.20;101180.00;;;;4982898;28;87867;-67
2023/10/02 09:54:21;;;;;;;5.35;2.67;;;28.80;50.30;29.20;101184.00;;;;4984539;28;88018;-68
2023/10/02 09:57:05;;;;;;;4.97;2.05;;;28.80;50.10;29.30;101176.00;;;;4973710;28;87921;-69
2023/10/02 09:59:48;;;;;;;3.33;2.00;;;28.90;50.30;29.40;101175.00;;;;4968602;28;88540;-69
2023/10/02 10:05:23;;;;;;;4.20;1.90;;;28.90;49.30;29.00;101180.00;;;;4986137;28;88094;-69
2023/10/02 10:13:46;;;;;;;3.00;1.85;;;28.60;50.00;29.10;101182.00;;;;4988489;28;87873;-69
2023/10/02 10:16:18;;;;;;;5.30;2.63;;;28.70;50.20;29.50;101174.00;;;;4983655;27;88964;-68
2023/10/02 10:21:57;;;;;;;3.65;1.83;;;29.30;49.70;29.90;101178.00;;;;4986160;27;88020;-68
2023/10/02 10:24:56;;;;;;;3.05;1.65;;;29.40;48.80;29.90;101179.00;;;;4982026;27;89114;-69
2023/10/02 10:27:40;;;;;;;3.80;1.67;;;29.50;48.40;29.80;101180.00;;;;4982952;28;88107;-69
2023/10/02 10:30:39;;;;;;;2.90;1.65;;;29.50;48.30;29.70;101175.00;;;;4983277;28;91214;-67
2023/10/02 10:35:59;;;;;;;2.75;2.20;;;29.30;48.40;29.70;101184.00;;;;4982239;28;87727;-68
2023/10/02 10:38:37;;;;;;;3.13;1.52;;;29.30;48.60;29.90;101173.00;;;;4987613;28;87833;-68
2023/10/02 10:41:09;;;;;;;1.63;1.52;;;29.50;48.60;30.00;101177.00;;;;4982648;28;88903;-68
2023/10/02 10:43:55;;;;;;;2.10;1.80;;;29.60;48.40;30.10;101168.00;;;;4985867;28;89196;-68
2023/10/02 10:46:29;;;;;;;4.65;1.70;;;29.70;48.50;30.10;101174.00;;;;4981310;28;88124;-67
2023/10/02 10:49:10;;;;;;;1.70;1.30;;;29.70;48.30;30.10;101176.00;;;;4972154;27;88771;-69
2023/10/02 10:51:38;;;;;;;2.35;1.67;;;29.70;48.00;29.90;101176.00;;;;4980113;28;88864;-69
2023/10/02 10:54:13;;;;;;;4.25;1.80;;;29.60;47.80;29.90;101169.00;;;;4983855;28;88109;-69
2023/10/02 10:56:44;;;;;;;1.05;1.02;;;29.60;48.40;30.10;101174.00;;;;4983741;27;87862;-68
2023/10/02 10:59:24;;;;;;;2.10;1.42;;;29.70;48.50;30.30;101162.00;;;;4941782;28;89976;-69
2023/10/02 11:02:09;;;;;;;2.97;1.83;;;29.80;48.60;30.20;101163.00;;;;4956960;28;87710;-69
2023/10/02 11:04:39;;;;;;;3.15;1.83;;;29.80;47.90;30.20;101164.00;;;;4966925;28;89361;-69
2023/10/02 11:07:23;;;;;;;6.40;1.95;;;29.80;48.30;30.20;101162.00;;;;4981458;28;88055;-68
2023/10/02 11:10:15;;;;;;;3.30;1.50;;;29.80;48.00;30.20;101162.00;;;;4966747;28;88868;-68
2023/10/02 11:12:55;;;;;;;2.55;2.33;;;29.80;48.00;30.40;101161.00;;;;4963779;28;88330;-70
2023/10/02 11:15:45;;;;;;;6.00;1.73;;;29.90;47.70;30.50;101158.00;;;;4979036;28;88575;-68
2023/10/02 11:18:19;;;;;;;6.20;2.03;;;30.10;47.80;30.70;101157.00;;;;4986984;28;87716;-69
2023/10/02 11:20:51;;;;;;;3.70;1.75;;;30.20;47.40;30.80;101153.00;;;;4961163;28;88051;-69
2023/10/02 11:23:44;;;;;;;2.25;1.58;;;30.40;47.50;31.00;101147.00;;;;4977964;27;89326;-68
2023/10/02 11:26:21;;;;;;;3.53;1.10;;;30.50;46.90;31.30;101148.00;;;;4956170;28;90445;-68
2023/10/02 11:28:50;;;;;;;3.13;2.10;;;30.70;47.00;31.50;101146.00;;;;4975256;28;87386;-68
2023/10/02 11:31:45;;;;;;;4.05;2.05;;;31.00;46.50;31.60;101143.00;;;;4980820;28;88125;-68
2023/10/02 11:34:11;;;;;;;3.92;2.15;;;31.10;46.20;31.70;101133.00;;;;4981184;28;88060;-68
2023/10/02 11:36:52;;;;;;;4.85;1.55;;;31.20;46.20;31.80;101128.00;;;;4980558;27;88811;-69
2023/10/02 11:39:19;;;;;;;2.45;1.48;;;31.30;45.40;32.00;101115.00;;;;4959774;28;87942;-69
2023/10/02 11:41:46;;;;;;;1.67;1.20;;;31.50;45.60;32.10;101119.00;;;;4980151;27;88432;-67
2023/10/02 11:44:14;;;;;;;5.03;1.88;;;31.60;44.50;32.10;101122.00;;;;4981592;28;89161;-69
2023/10/02 11:46:40;;;;;;;5.28;1.70;;;31.60;44.70;32.20;101118.00;;;;4981542;27;88042;-68
2023/10/02 11:49:12;;;;;;;2.03;1.30;;;31.70;44.70;32.30;101110.00;;;;4982349;28;87992;-68
2023/10/02 11:51:39;;;;;;;3.55;1.17;;;31.80;44.30;32.30;101113.00;;;;4967908;28;88043;-69
2023/10/02 11:54:08;;;;;;;1.52;1.13;;;31.80;43.70;32.10;101119.00;;;;4984739;28;88016;-70
2023/10/02 11:56:35;;;;;;;3.53;1.85;;;31.70;43.60;31.90;101121.00;;;;4979191;28;87958;-69
2023/10/02 11:59:02;;;;;;;3.95;1.40;;;31.50;43.60;31.70;101110.00;;;;4982817;27;89417;-68
2023/10/02 12:01:29;;;;;;;3.92;1.65;;;31.40;44.00;31.70;101117.00;;;;4987166;28;88590;-68
2023/10/02 12:03:57;;;;;;;2.42;1.33;;;31.30;44.20;31.80;101103.00;;;;4986843;27;89304;-68
2023/10/02 12:06:28;;;;;;;4.32;1.65;;;31.40;44.50;31.90;101107.00;;;;4985563;27;87990;-68
2023/10/02 12:08:58;;;;;;;2.92;1.48;;;31.50;44.20;31.90;101101.00;;;;4981306;27;91928;-67
2023/10/02 12:11:24;;;;;;;3.13;1.30;;;31.50;44.20;32.00;101099.00;;;;4966629;27;88034;-68
2023/10/02 12:13:51;;;;;;;3.53;1.90;;;31.50;44.00;32.00;101096.00;;;;4975703;28;107907;-68
2023/10/02 12:16:21;;;;;;;2.35;1.75;;;31.60;43.90;32.00;101096.00;;;;4985254;28;88615;-69
2023/10/02 12:18:49;;;;;;;2.47;1.63;;;31.50;43.60;32.00;101103.00;;;;4988217;28;87148;-68
2023/10/02 12:21:16;;;;;;;2.50;1.13;;;31.50;43.80;32.00;101092.00;;;;4985617;27;88131;-68
2023/10/02 12:23:43;;;;;;;3.45;1.42;;;31.50;43.30;31.70;101087.00;;;;4986090;28;88837;-70
2023/10/02 12:26:17;;;;;;;3.15;1.23;;;31.30;43.30;31.30;101094.00;;;;4983583;28;115127;-68
2023/10/02 12:28:44;;;;;;;2.50;1.60;;;31.00;43.80;31.10;101099.00;;;;4971725;27;90576;-68
2023/10/02 12:31:14;;;;;;;1.60;1.17;;;30.80;44.30;30.90;101086.00;;;;4982690;28;98256;-68
2023/10/02 12:33:52;;;;;;;4.22;2.35;;;30.60;44.30;30.80;101085.00;;;;4958458;27;87954;-69
2023/10/02 12:36:23;;;;;;;4.50;1.23;;;30.40;44.90;30.90;101091.00;;;;4984353;28;87611;-68